Time;durP1;ratioP1;P1;durP2;ratioP2;P2;SDS_P1;SDS_P2;PMS_P1;PMS_P2;Temp;Humidity;BMP_temperature;BMP_pressure;BME280_temperature;BME280_humidity;BME280_pressure;Samples;Min_cycle;Max_cycle;Signal;HPM_P1;HPM_P2
2022/10/01 00:00:55;;;;;;;60.60;30.07;;;;;;;9.32;100.00;99721.38;4147306;28;20307;-76
2022/10/01 00:03:23;;;;;;;55.60;29.93;;;;;;;9.30;100.00;99718.88;4173349;28;20425;-71
2022/10/01 00:06:06;;;;;;;57.17;30.20;;;;;;;9.30;100.00;99719.72;4155373;28;20230;-73
2022/10/01 00:08:32;;;;;;;58.20;30.17;;;;;;;9.27;100.00;99712.06;4150474;28;20236;-72
2022/10/01 00:11:00;;;;;;;54.73;30.17;;;;;;;9.28;100.00;99715.56;4164172;28;20364;-76
2022/10/01 00:13:29;;;;;;;54.10;28.90;;;;;;;9.28;100.00;99711.06;4160083;28;20242;-73
2022/10/01 00:15:55;;;;;;;49.63;27.03;;;;;;;9.33;100.00;99718.56;4157201;28;20262;-73
2022/10/01 00:18:22;;;;;;;53.53;28.27;;;;;;;9.33;100.00;99720.41;4150856;28;20309;-72
2022/10/01 00:20:48;;;;;;;57.30;30.87;;;;;;;9.31;100.00;99723.19;4159848;28;21557;-71
2022/10/01 00:23:15;;;;;;;66.87;36.30;;;;;;;9.23;100.00;99721.31;4159758;28;20248;-73
2022/10/01 00:25:42;;;;;;;67.03;38.67;;;;;;;9.28;100.00;99728.81;4151672;28;22898;-69
2022/10/01 00:28:10;;;;;;;70.37;38.90;;;;;;;9.29;100.00;99720.72;4152580;28;22879;-70
2022/10/01 00:30:37;;;;;;;64.03;35.10;;;;;;;9.29;100.00;99720.72;4163176;28;21830;-70
2022/10/01 00:33:05;;;;;;;58.47;33.40;;;;;;;9.32;100.00;99718.72;4170211;28;20231;-69
2022/10/01 00:35:32;;;;;;;62.50;31.40;;;;;;;9.33;100.00;99717.75;4151555;28;20301;-70
2022/10/01 00:37:59;;;;;;;52.47;31.30;;;;;;;9.33;100.00;99731.84;4146274;28;20595;-73
2022/10/01 00:40:25;;;;;;;55.40;31.47;;;;;;;9.33;100.00;99731.84;4154548;28;20256;-69
2022/10/01 00:42:51;;;;;;;54.10;29.97;;;;;;;9.37;100.00;99743.00;4154371;28;22991;-69
2022/10/01 00:45:18;;;;;;;51.47;28.23;;;;;;;9.42;100.00;99740.72;4149439;28;20341;-67
2022/10/01 00:47:51;;;;;;;57.37;30.70;;;;;;;9.38;100.00;99744.66;4156631;28;21837;-72
2022/10/01 00:50:33;;;;;;;49.27;28.10;;;;;;;9.37;100.00;99727.06;4146215;29;20240;-74
2022/10/01 00:53:05;;;;;;;46.77;27.23;;;;;;;9.38;100.00;99728.72;4159249;28;21755;-72
2022/10/01 00:55:37;;;;;;;51.83;28.63;;;;;;;9.41;100.00;99728.41;4146258;28;22147;-72
2022/10/01 00:58:04;;;;;;;51.47;28.40;;;;;;;9.36;100.00;99725.38;4153213;28;20294;-72
2022/10/01 01:00:30;;;;;;;55.40;28.70;;;;;;;9.35;100.00;99723.75;4148929;28;20238;-71
2022/10/01 01:02:57;;;;;;;52.07;29.33;;;;;;;9.35;100.00;99729.03;4162585;28;20239;-72
2022/10/01 01:05:24;;;;;;;51.13;27.53;;;;;;;9.35;100.00;99716.59;4164556;28;20407;-72
2022/10/01 01:07:52;;;;;;;48.80;27.27;;;;;;;9.37;100.00;99708.50;4149772;28;20293;-72
2022/10/01 01:10:29;;;;;;;55.00;28.50;;;;;;;9.39;100.00;99714.44;4170298;28;20865;-70
2022/10/01 01:13:22;;;;;;;51.57;28.60;;;;;;;9.34;100.00;99722.06;4155138;28;20234;-72
2022/10/01 01:16:23;;;;;;;50.20;28.33;;;;;;;9.35;100.00;99715.78;4158613;28;22762;-72
2022/10/01 01:19:02;;;;;;;48.03;27.07;;;;;;;9.33;100.00;99725.72;4156878;28;21608;-71
2022/10/01 01:21:42;;;;;;;52.87;29.03;;;;;;;9.25;100.00;99722.00;4149413;28;20340;-73
2022/10/01 01:24:27;;;;;;;51.73;28.50;;;;;;;9.23;100.00;99726.63;4154185;28;20437;-70
2022/10/01 01:27:05;;;;;;;54.17;30.80;;;;;;;9.20;100.00;99723.44;4164677;28;20234;-71
2022/10/01 01:29:45;;;;;;;56.70;30.00;;;;;;;9.20;100.00;99721.63;4154955;28;21103;-70
2022/10/01 01:32:17;;;;;;;62.33;31.40;;;;;;;9.22;100.00;99727.59;4166371;28;21155;-69
2022/10/01 01:34:45;;;;;;;60.00;33.27;;;;;;;9.21;100.00;99733.91;4156094;28;20301;-72
2022/10/01 01:37:14;;;;;;;57.17;32.10;;;;;;;9.15;100.00;99721.25;4153387;28;20292;-71
2022/10/01 01:39:43;;;;;;;63.80;32.57;;;;;;;9.08;100.00;99712.22;4145967;28;20249;-70
2022/10/01 01:42:15;;;;;;;65.97;35.27;;;;;;;9.15;100.00;99721.25;4164891;28;22125;-71
2022/10/01 01:44:44;;;;;;;58.13;31.33;;;;;;;9.15;100.00;99729.19;4151973;28;20788;-70
2022/10/01 01:47:11;;;;;;;59.67;31.63;;;;;;;9.14;100.00;99727.56;4161144;28;22203;-69
2022/10/01 01:49:38;;;;;;;64.23;34.50;;;;;;;9.09;100.00;99735.16;4161229;28;20361;-69
2022/10/01 01:52:13;;;;;;;62.07;34.47;;;;;;;9.06;100.00;99733.63;4155164;29;20549;-71
2022/10/01 01:54:48;;;;;;;63.23;33.20;;;;;;;9.03;100.00;99725.94;4147176;28;20650;-70
2022/10/01 01:57:16;;;;;;;53.33;31.73;;;;;;;9.11;100.00;99732.31;4158077;28;23422;-71
2022/10/01 01:59:44;;;;;;;67.80;37.37;;;;;;;9.07;100.00;99731.81;4160409;28;25657;-69
2022/10/01 02:02:13;;;;;;;69.00;36.87;;;;;;;9.07;100.00;99731.81;4155242;28;20234;-69
2022/10/01 02:04:47;;;;;;;66.87;36.57;;;;;;;9.09;100.00;99732.50;4162698;28;20235;-69
2022/10/01 02:07:27;;;;;;;72.57;37.73;;;;;;;9.00;100.00;99744.00;4160394;29;22029;-70
2022/10/01 02:09:58;;;;;;;66.63;38.53;;;;;;;9.04;100.00;99745.38;4160502;28;20318;-70
2022/10/01 02:12:53;;;;;;;72.43;40.07;;;;;;;9.04;100.00;99746.22;4158681;28;20243;-70
2022/10/01 02:15:47;;;;;;;72.03;37.83;;;;;;;8.99;100.00;99755.59;4177985;28;20238;-71
2022/10/01 02:18:43;;;;;;;75.53;39.93;;;;;;;8.92;100.00;99754.53;4155830;28;20234;-71
2022/10/01 02:21:20;;;;;;;81.00;41.33;;;;;;;8.93;100.00;99750.91;4146511;28;21892;-70
2022/10/01 02:24:31;;;;;;;70.73;39.23;;;;;;;8.94;100.00;99757.88;4141932;29;20244;-69
2022/10/01 02:26:59;;;;;;;72.47;38.40;;;;;;;8.97;100.00;99752.28;4119871;29;20244;-69
2022/10/01 02:29:26;;;;;;;77.27;39.57;;;;;;;8.91;100.00;99750.22;4119532;29;20430;-70
2022/10/01 02:31:54;;;;;;;80.13;40.93;;;;;;;8.85;100.00;99741.06;4128614;28;20557;-69
2022/10/01 02:34:23;;;;;;;71.70;40.63;;;;;;;8.81;100.00;99737.03;4148971;28;20227;-71
2022/10/01 02:36:50;;;;;;;72.47;38.00;;;;;;;8.82;100.00;99734.22;4154948;28;21954;-70
2022/10/01 02:39:18;;;;;;;65.97;36.17;;;;;;;8.82;100.00;99734.22;4147582;29;20354;-73
2022/10/01 02:41:47;;;;;;;75.13;39.10;;;;;;;8.78;100.00;99724.91;4160365;28;21504;-69
2022/10/01 02:44:20;;;;;;;72.43;39.70;;;;;;;8.77;100.00;99723.22;4161037;28;20673;-70
2022/10/01 02:47:06;;;;;;;62.43;35.60;;;;;;;8.77;100.00;99714.44;4159978;28;20421;-72
2022/10/01 02:49:34;;;;;;;70.40;37.87;;;;;;;8.73;100.00;99713.91;4158178;28;20398;-70
2022/10/01 02:52:30;;;;;;;69.37;37.47;;;;;;;8.72;100.00;99704.28;4166311;28;21543;-71
2022/10/01 02:55:06;;;;;;;70.57;38.20;;;;;;;8.73;100.00;99708.59;4170494;28;20406;-70
2022/10/01 02:57:32;;;;;;;71.23;38.07;;;;;;;8.76;100.00;99705.66;4176608;28;20246;-70
2022/10/01 03:00:02;;;;;;;74.63;39.60;;;;;;;8.77;100.00;99696.69;4178983;28;20231;-70
2022/10/01 03:02:30;;;;;;;66.73;37.00;;;;;;;8.80;100.00;99698.22;4169032;28;20232;-69
2022/10/01 03:04:57;;;;;;;67.97;36.90;;;;;;;8.81;100.00;99695.41;4175827;28;20817;-70
2022/10/01 03:07:25;;;;;;;73.23;38.07;;;;;;;8.90;100.00;99687.50;4185207;28;20239;-71
2022/10/01 03:09:51;;;;;;;68.77;36.43;;;;;;;8.98;100.00;99692.91;4180140;28;20238;-70
2022/10/01 03:12:18;;;;;;;70.60;38.33;;;;;;;8.83;100.00;99680.19;4175108;29;23545;-69
2022/10/01 03:14:45;;;;;;;68.83;37.97;;;;;;;8.83;100.00;99680.19;4184965;28;21822;-69
2022/10/01 03:17:12;;;;;;;60.90;33.77;;;;;;;8.86;100.00;99677.22;4169548;28;20321;-70
2022/10/01 03:19:39;;;;;;;71.13;37.23;;;;;;;8.84;100.00;99668.56;4178524;28;20232;-70
2022/10/01 03:22:06;;;;;;;71.13;37.50;;;;;;;8.95;100.00;99669.34;4166769;28;20354;-70
2022/10/01 03:24:33;;;;;;;69.20;35.13;;;;;;;8.88;100.00;99669.94;4159474;28;20882;-70
2022/10/01 03:27:00;;;;;;;65.13;35.73;;;;;;;8.85;100.00;99664.97;4178208;28;20259;-69
2022/10/01 03:29:26;;;;;;;67.30;36.40;;;;;;;8.83;100.00;99672.22;4178114;28;20242;-70
2022/10/01 03:31:53;;;;;;;58.20;33.63;;;;;;;8.81;100.00;99676.84;4169839;28;22996;-70
2022/10/01 03:34:20;;;;;;;63.40;36.13;;;;;;;8.78;100.00;99673.66;4182150;28;20336;-71
2022/10/01 03:36:47;;;;;;;71.57;36.87;;;;;;;8.76;100.00;99676.47;4169748;28;20371;-71
2022/10/01 03:39:14;;;;;;;70.80;37.50;;;;;;;8.74;100.00;99678.44;4162782;28;20230;-71
2022/10/01 03:41:40;;;;;;;64.43;36.30;;;;;;;8.72;100.00;99690.19;4165539;29;21294;-70
2022/10/01 03:44:07;;;;;;;69.07;37.83;;;;;;;8.64;100.00;99697.09;4180455;28;20236;-70
2022/10/01 03:46:33;;;;;;;66.10;36.13;;;;;;;8.63;100.00;99697.22;4150344;28;20398;-70
2022/10/01 03:49:00;;;;;;;73.27;38.07;;;;;;;8.53;100.00;99707.09;4165905;28;20313;-70
2022/10/01 03:51:27;;;;;;;74.30;38.43;;;;;;;8.44;100.00;99701.69;4160815;28;20306;-70
2022/10/01 03:53:55;;;;;;;66.80;34.43;;;;;;;8.43;100.00;99697.38;4172300;28;20310;-70
2022/10/01 03:56:22;;;;;;;71.23;36.73;;;;;;;8.38;100.00;99699.63;4162257;28;21047;-70
2022/10/01 03:58:49;;;;;;;71.97;36.87;;;;;;;8.35;100.00;99694.59;4152486;28;20231;-70
2022/10/01 04:01:16;;;;;;;79.17;40.50;;;;;;;8.24;100.00;99713.34;4152564;28;20388;-71
2022/10/01 04:03:42;;;;;;;79.73;39.83;;;;;;;8.15;100.00;99703.66;4161131;28;20243;-71
2022/10/01 04:06:10;;;;;;;74.13;37.33;;;;;;;8.10;100.00;99705.88;4155558;28;20437;-68
2022/10/01 04:08:37;;;;;;;66.70;34.97;;;;;;;8.07;100.00;99711.47;4169327;28;21456;-69
2022/10/01 04:11:05;;;;;;;69.57;35.03;;;;;;;8.03;100.00;99697.72;4154420;28;20231;-70
2022/10/01 04:13:32;;;;;;;73.60;37.70;;;;;;;7.97;100.00;99685.88;4162549;28;21308;-70
2022/10/01 04:15:58;;;;;;;77.97;38.77;;;;;;;7.95;100.00;99695.78;4155344;28;20670;-70
2022/10/01 04:18:25;;;;;;;71.13;36.43;;;;;;;7.94;100.00;99694.13;4171598;28;22364;-70
2022/10/01 04:20:51;;;;;;;67.60;34.20;;;;;;;7.90;100.00;99690.09;4164736;28;22135;-68
2022/10/01 04:23:18;;;;;;;69.70;35.50;;;;;;;7.89;100.00;99699.03;4164729;28;20245;-70
2022/10/01 04:25:44;;;;;;;78.43;39.80;;;;;;;7.85;100.00;99691.50;4160566;28;20254;-69
2022/10/01 04:28:12;;;;;;;69.77;38.00;;;;;;;7.83;100.00;99694.28;4150214;28;20527;-71
2022/10/01 04:30:40;;;;;;;72.97;37.93;;;;;;;7.74;100.00;99681.94;4159871;28;20239;-72
2022/10/01 04:33:08;;;;;;;68.00;35.87;;;;;;;7.67;100.00;99692.25;4150800;28;20538;-70
2022/10/01 04:35:35;;;;;;;72.77;36.47;;;;;;;7.68;100.00;99693.09;4157734;28;20301;-70
2022/10/01 04:38:05;;;;;;;68.43;35.77;;;;;;;7.64;100.00;99691.72;4157383;28;20286;-69
2022/10/01 04:40:34;;;;;;;70.10;35.77;;;;;;;7.62;100.00;99686.56;4149566;28;20625;-70
2022/10/01 04:43:01;;;;;;;68.80;34.77;;;;;;;7.56;100.00;99685.34;4172298;28;20569;-69
2022/10/01 04:45:28;;;;;;;68.70;35.17;;;;;;;7.54;100.00;99687.31;4153096;28;20251;-69
2022/10/01 04:47:55;;;;;;;70.30;36.70;;;;;;;7.54;100.00;99682.00;4153801;28;20242;-69
2022/10/01 04:50:23;;;;;;;66.57;35.17;;;;;;;7.55;100.00;99683.66;4169646;28;20243;-68
2022/10/01 04:52:50;;;;;;;70.27;36.47;;;;;;;7.52;100.00;99686.59;4142942;28;21399;-70
2022/10/01 04:55:18;;;;;;;64.57;33.30;;;;;;;7.50;100.00;99688.56;4154755;28;21153;-69
2022/10/01 04:57:45;;;;;;;66.27;34.20;;;;;;;7.47;100.00;99688.84;4161579;28;21729;-68
2022/10/01 05:00:14;;;;;;;80.93;39.93;;;;;;;7.45;100.00;99690.81;4169671;28;20235;-69
2022/10/01 05:02:45;;;;;;;70.83;36.90;;;;;;;7.40;100.00;99688.59;4164241;28;20236;-71
2022/10/01 05:05:12;;;;;;;70.37;36.07;;;;;;;7.35;100.00;99689.97;4205728;28;20309;-69
2022/10/01 05:07:39;;;;;;;69.33;35.03;;;;;;;7.36;100.00;99697.78;4199597;28;20243;-70
2022/10/01 05:10:11;;;;;;;69.67;36.97;;;;;;;7.35;100.00;99689.97;4190386;28;20494;-69
2022/10/01 05:12:38;;;;;;;68.53;36.83;;;;;;;7.35;100.00;99695.25;4167236;28;21763;-69
2022/10/01 05:15:05;;;;;;;81.83;40.63;;;;;;;7.36;100.00;99691.66;4161238;28;21303;-70
2022/10/01 05:17:31;;;;;;;68.27;36.10;;;;;;;7.40;100.00;99693.06;4170059;28;20286;-69
2022/10/01 05:19:58;;;;;;;82.03;40.60;;;;;;;7.41;100.00;99694.72;4172064;28;25432;-71
2022/10/01 05:22:25;;;;;;;85.43;44.57;;;;;;;7.37;100.00;99695.97;4163666;28;20233;-67
2022/10/01 05:24:52;;;;;;;86.27;42.30;;;;;;;7.49;100.00;99702.78;4176364;28;20247;-69
2022/10/01 05:27:18;;;;;;;86.13;41.93;;;;;;;7.76;100.00;99695.88;4194348;28;24782;-72
2022/10/01 05:29:45;;;;;;;88.50;43.77;;;;;;;7.91;100.00;99696.22;4161415;28;21597;-69
2022/10/01 05:32:12;;;;;;;90.13;45.60;;;;;;;7.91;100.00;99697.03;4185436;28;20277;-67
2022/10/01 05:34:39;;;;;;;80.37;42.60;;;;;;;8.11;100.00;99696.97;4163805;28;21740;-72
2022/10/01 05:37:05;;;;;;;86.90;44.73;;;;;;;8.09;100.00;99699.75;4166764;28;20786;-70
2022/10/01 05:39:32;;;;;;;79.33;42.87;;;;;;;8.16;100.00;99702.66;4179778;28;25595;-71
2022/10/01 05:42:01;;;;;;;83.90;42.40;;;;;;;8.19;100.00;99694.41;4167963;28;21807;-71
2022/10/01 05:44:36;;;;;;;80.37;42.57;;;;;;;8.22;100.00;99694.94;4168131;28;20254;-68
2022/10/01 05:47:05;;;;;;;85.37;43.40;;;;;;;8.29;100.00;99697.84;4168196;28;20310;-67
2022/10/01 05:49:32;;;;;;;85.93;42.63;;;;;;;8.41;100.00;99694.03;4175630;28;20246;-68
2022/10/01 05:51:59;;;;;;;88.87;46.60;;;;;;;8.38;100.00;99688.16;4169458;28;20334;-69
2022/10/01 05:54:28;;;;;;;93.77;43.40;;;;;;;8.46;100.00;99696.25;4158450;28;20301;-65
2022/10/01 05:56:55;;;;;;;78.03;42.77;;;;;;;8.52;100.00;99700.94;4160251;28;21098;-69
2022/10/01 05:59:23;;;;;;;89.10;45.13;;;;;;;8.59;100.00;99695.84;4169322;28;20651;-64
2022/10/01 06:01:56;;;;;;;89.97;45.93;;;;;;;8.60;100.00;99697.53;4154329;28;20250;-68
2022/10/01 06:04:23;;;;;;;86.60;45.50;;;;;;;8.61;100.00;99701.84;4154276;28;21460;-67
2022/10/01 06:06:49;;;;;;;83.27;43.57;;;;;;;8.67;100.00;99701.25;4166639;28;20231;-70
2022/10/01 06:09:16;;;;;;;92.63;46.60;;;;;;;8.71;100.00;99693.81;4168012;28;22130;-73
2022/10/01 06:11:42;;;;;;;88.00;45.47;;;;;;;8.72;100.00;99701.63;4160943;28;23487;-70
2022/10/01 06:14:09;;;;;;;97.20;47.17;;;;;;;8.79;100.00;99696.56;4162294;28;20338;-75
2022/10/01 06:16:36;;;;;;;87.97;45.47;;;;;;;8.97;100.00;99691.25;4176430;28;20245;-72
2022/10/01 06:19:03;;;;;;;87.57;45.40;;;;;;;9.04;100.00;99690.47;4154114;28;22013;-69
2022/10/01 06:21:30;;;;;;;78.43;42.50;;;;;;;9.16;100.00;99687.59;4157829;28;25394;-70
2022/10/01 06:23:57;;;;;;;77.97;41.83;;;;;;;9.34;100.00;99688.41;4155169;28;22285;-71
2022/10/01 06:26:24;;;;;;;77.73;42.83;;;;;;;9.57;100.00;99691.34;4157238;28;21303;-73
2022/10/01 06:28:51;;;;;;;74.10;41.30;;;;;;;9.82;100.00;99688.84;4166471;28;20564;-73
2022/10/01 06:31:18;;;;;;;89.00;45.63;;;;;;;10.01;100.00;99690.41;4166305;28;20249;-68
2022/10/01 06:33:45;;;;;;;74.33;41.70;;;;;;;10.25;100.00;99689.66;4152623;28;20235;-75
2022/10/01 06:36:11;;;;;;;75.43;41.63;;;;;;;10.30;100.00;99684.72;4161919;28;25794;-70
2022/10/01 06:38:38;;;;;;;68.27;39.30;;;;;;;10.34;100.00;99688.72;4181953;28;20231;-69
2022/10/01 06:41:05;;;;;;;69.23;38.13;;;;;;;10.40;100.00;99682.78;4171867;28;20268;-70
2022/10/01 06:43:32;;;;;;;70.67;37.57;;;;;;;10.46;100.00;99687.41;4163692;28;20247;-69
2022/10/01 06:46:03;;;;;;;60.27;34.87;;;;;;;10.31;100.00;99678.44;4158222;28;20310;-70
2022/10/01 06:48:31;;;;;;;61.70;35.10;;;;;;;10.37;100.00;99680.41;4170234;28;21183;-73
2022/10/01 06:50:58;;;;;;;63.50;35.93;;;;;;;10.25;100.00;99677.19;4167578;28;20418;-74
2022/10/01 06:53:26;;;;;;;57.33;33.53;;;;;;;10.49;100.00;99681.81;4183943;28;20254;-71
2022/10/01 06:55:53;;;;;;;51.07;31.87;;;;;;;10.58;100.00;99677.31;4166390;28;21917;-74
2022/10/01 06:58:21;;;;;;;60.63;33.90;;;;;;;10.49;100.00;99686.28;4184355;28;20239;-69
2022/10/01 07:00:49;;;;;;;55.07;32.47;;;;;;;10.49;100.00;99680.97;4204740;28;21378;-72
2022/10/01 07:03:20;;;;;;;51.47;30.40;;;;;;;10.61;100.00;99686.81;4158724;28;20552;-76
2022/10/01 07:05:49;;;;;;;62.60;34.97;;;;;;;10.74;100.00;99684.47;4198398;28;20293;-74
2022/10/01 07:08:16;;;;;;;44.60;25.93;;;;;;;10.87;100.00;99695.50;4208248;28;20559;-72
2022/10/01 07:10:44;;;;;;;46.77;26.53;;;;;;;11.18;100.00;99686.84;4191773;28;20536;-71
2022/10/01 07:13:14;;;;;;;42.03;23.97;;;;;;;11.61;97.29;99693.63;4225266;28;20234;-73
2022/10/01 07:15:41;;;;;;;41.63;23.30;;;;;;;12.16;92.26;99686.63;4209003;28;20843;-73
2022/10/01 07:18:08;;;;;;;41.50;23.03;;;;;;;12.80;88.71;99688.25;4202799;28;20374;-74
2022/10/01 07:20:38;;;;;;;41.73;22.30;;;;;;;14.45;82.61;99694.44;4214009;28;20233;-69
2022/10/01 07:23:12;;;;;;;35.80;21.83;;;;;;;17.13;70.76;99706.69;4190673;28;20253;-69
2022/10/01 07:25:40;;;;;;;34.07;20.27;;;;;;;20.59;53.67;99734.38;4201716;28;20244;-72
2022/10/01 07:28:14;;;;;;;35.20;20.03;;;;;;;22.94;43.08;99751.75;4203942;28;20878;-71
2022/10/01 07:31:06;;;;;;;28.60;18.80;;;;;;;24.76;38.43;99758.63;4187897;28;20245;-67
2022/10/01 07:33:33;;;;;;;33.50;18.57;;;;;;;26.66;32.80;99774.53;4191482;28;20370;-69
2022/10/01 07:36:01;;;;;;;27.63;16.77;;;;;;;27.67;30.02;99778.53;4214910;28;20234;-73
2022/10/01 07:38:28;;;;;;;26.27;16.23;;;;;;;28.86;27.68;99782.59;4195452;28;21150;-70
2022/10/01 07:40:57;;;;;;;26.80;16.43;;;;;;;29.25;26.40;99779.09;4220051;28;20305;-70
2022/10/01 07:43:24;;;;;;;23.20;15.47;;;;;;;30.63;24.73;99775.03;4239093;28;20284;-71
2022/10/01 07:45:53;;;;;;;25.47;16.53;;;;;;;29.92;25.15;99770.31;4217227;28;20237;-71
2022/10/01 07:48:20;;;;;;;26.03;15.90;;;;;;;29.40;25.60;99768.00;4175129;28;22313;-71
2022/10/01 07:50:48;;;;;;;24.03;16.90;;;;;;;29.95;25.34;99769.75;4324643;28;20254;-74
2022/10/01 07:53:15;;;;;;;23.23;15.83;;;;;;;29.55;25.09;99778.06;4253494;28;20300;-70
2022/10/01 07:55:43;;;;;;;28.30;16.80;;;;;;;28.86;26.08;99771.66;4178017;28;26131;-70
2022/10/01 07:58:10;;;;;;;23.77;16.38;;;;;;;29.69;25.22;99780.97;4238076;28;20231;-68
2022/10/01 08:00:37;;;;;;;25.55;17.55;;;;;;;29.82;24.71;99783.03;4213729;28;20234;-70
2022/10/01 08:03:04;;;;;;;27.77;17.57;;;;;;;26.74;28.82;99768.56;4238823;28;20234;-43
2022/10/01 08:05:33;;;;;;;25.57;16.73;;;;;;;26.72;28.87;99757.09;4211772;28;20317;-45
2022/10/01 08:08:04;;;;;;;23.83;17.27;;;;;;;26.27;28.99;99761.22;4211877;28;21712;-49
2022/10/01 08:10:35;;;;;;;24.23;17.40;;;;;;;25.84;30.88;99746.78;4198038;28;21486;-71
2022/10/01 08:13:13;;;;;;;24.97;17.50;;;;;;;27.12;28.55;99755.53;4201275;28;21952;-70
2022/10/01 08:15:45;;;;;;;25.73;17.67;;;;;;;27.97;27.34;99760.47;4185526;28;20400;-70
2022/10/01 08:18:12;;;;;;;23.80;17.60;;;;;;;27.28;28.06;99749.03;4181789;28;22748;-67
2022/10/01 08:20:38;;;;;;;21.17;16.23;;;;;;;26.35;29.23;99741.63;4200776;28;20229;-70
2022/10/01 08:23:10;;;;;;;23.57;16.63;;;;;;;25.67;30.41;99731.41;4191393;28;22289;-67
2022/10/01 08:25:39;;;;;;;21.43;15.67;;;;;;;26.06;30.46;99733.88;4237763;28;20352;-69
2022/10/01 08:28:07;;;;;;;23.07;14.87;;;;;;;26.18;30.19;99736.38;4192167;28;20440;-69
2022/10/01 08:30:36;;;;;;;26.53;15.77;;;;;;;24.54;32.17;99726.81;4199035;28;20254;-68
2022/10/01 08:33:04;;;;;;;22.30;15.33;;;;;;;24.46;32.33;99718.25;4175441;28;20238;-68
2022/10/01 08:35:31;;;;;;;24.83;16.63;;;;;;;21.97;37.00;99701.81;4178605;28;20241;-71
2022/10/01 08:38:01;;;;;;;26.50;16.63;;;;;;;20.05;42.29;99687.41;4183527;28;20424;-69
2022/10/01 08:40:35;;;;;;;24.23;15.70;;;;;;;19.58;44.91;99674.38;4179511;28;21789;-68
2022/10/01 08:43:06;;;;;;;26.57;17.87;;;;;;;18.68;47.11;99663.88;4172015;28;22674;-67
2022/10/01 08:45:45;;;;;;;26.70;17.37;;;;;;;17.67;52.03;99657.19;4163402;28;20444;-68
2022/10/01 08:48:51;;;;;;;27.53;17.67;;;;;;;16.71;56.48;99652.22;4171547;28;20315;-70
2022/10/01 08:51:31;;;;;;;25.70;16.87;;;;;;;15.87;59.25;99648.03;4175015;28;20393;-70
2022/10/01 08:54:31;;;;;;;27.30;17.40;;;;;;;15.14;65.19;99642.16;4168108;28;20236;-70
2022/10/01 08:57:00;;;;;;;31.07;17.80;;;;;;;15.03;66.83;99640.88;4196831;28;20436;-69
2022/10/01 08:59:34;;;;;;;29.60;18.07;;;;;;;15.01;66.81;99629.50;4183956;28;20538;-69
2022/10/01 09:02:01;;;;;;;29.50;17.30;;;;;;;14.78;67.76;99619.81;4200881;28;20235;-70
2022/10/01 09:04:30;;;;;;;16.60;9.93;;;;;;;14.28;67.87;99618.91;4194835;28;20239;-69
2022/10/01 09:07:22;;;;;;;24.37;14.77;;;;;;;14.01;70.99;99624.94;4159113;28;21049;-66
2022/10/01 09:09:59;;;;;;;27.47;15.73;;;;;;;14.11;71.17;99623.63;4149162;28;20235;-66
2022/10/01 09:12:52;;;;;;;26.37;15.07;;;;;;;13.78;73.91;99617.03;4173834;28;20604;-66
2022/10/01 09:15:42;;;;;;;28.27;14.70;;;;;;;13.56;74.42;99608.13;4178418;28;21530;-68
2022/10/01 09:18:24;;;;;;;20.83;13.10;;;;;;;13.50;74.76;99610.50;4178656;28;20255;-67
2022/10/01 09:20:54;;;;;;;23.80;13.73;;;;;;;13.55;74.98;99606.44;4170157;28;20686;-70
2022/10/01 09:23:31;;;;;;;14.17;8.73;;;;;;;13.32;73.81;99607.34;4167710;28;20591;-64
2022/10/01 09:25:58;;;;;;;19.90;11.27;;;;;;;13.15;75.39;99606.66;4154651;28;21212;-64
2022/10/01 09:28:32;;;;;;;19.63;12.20;;;;;;;12.93;77.59;99600.38;4155912;28;21886;-66
2022/10/01 09:31:11;;;;;;;22.17;13.00;;;;;;;12.63;79.80;99602.94;4171047;28;20243;-68
2022/10/01 09:33:41;;;;;;;25.57;14.60;;;;;;;12.42;81.94;99602.78;4170847;28;21074;-68
2022/10/01 09:36:20;;;;;;;23.67;14.77;;;;;;;12.35;83.92;99597.31;4178848;28;20434;-67
2022/10/01 09:38:56;;;;;;;23.60;13.80;;;;;;;12.46;84.16;99596.91;4165341;28;20433;-70
2022/10/01 09:41:23;;;;;;;24.17;14.93;;;;;;;12.51;83.20;99598.22;4172524;28;20317;-69
2022/10/01 09:43:50;;;;;;;24.67;15.03;;;;;;;12.41;83.48;99609.13;4140783;28;21088;-68
2022/10/01 09:46:16;;;;;;;23.73;13.63;;;;;;;12.36;84.30;99600.81;4159451;28;22285;-66
2022/10/01 09:49:01;;;;;;;26.53;14.87;;;;;;;12.36;83.22;99598.13;4162838;28;20233;-66
2022/10/01 09:51:49;;;;;;;23.40;13.93;;;;;;;12.35;83.78;99604.50;4146374;28;20531;-67
2022/10/01 09:54:21;;;;;;;22.20;13.00;;;;;;;12.41;83.95;99603.78;4159516;28;22570;-68
2022/10/01 09:56:53;;;;;;;23.17;14.27;;;;;;;12.37;84.40;99597.16;4163975;28;20317;-68
2022/10/01 09:59:23;;;;;;;25.60;15.27;;;;;;;12.42;85.00;99595.59;4182049;28;20246;-66
2022/10/01 10:01:57;;;;;;;24.40;14.90;;;;;;;12.54;84.70;99590.66;4157486;28;20265;-67
2022/10/01 10:04:25;;;;;;;28.20;15.37;;;;;;;12.79;84.54;99595.81;4189404;28;20423;-67
2022/10/01 10:06:59;;;;;;;27.83;15.97;;;;;;;13.17;83.01;99585.13;4181530;29;21525;-64
2022/10/01 10:09:28;;;;;;;23.77;15.70;;;;;;;13.52;81.86;99589.75;4190882;29;21896;-64
2022/10/01 10:11:59;;;;;;;27.87;15.73;;;;;;;13.75;79.63;99586.16;4163465;29;20251;-68
2022/10/01 10:14:30;;;;;;;24.77;14.47;;;;;;;13.84;78.85;99571.66;4159688;28;20230;-68
2022/10/01 10:16:57;;;;;;;23.87;13.77;;;;;;;13.69;77.68;99578.88;4177926;28;21152;-64
2022/10/01 10:19:27;;;;;;;22.27;12.43;;;;;;;13.35;78.75;99576.78;4173874;28;20226;-67
2022/10/01 10:21:59;;;;;;;21.07;13.00;;;;;;;13.06;80.67;99570.34;4157385;28;20238;-71
2022/10/01 10:24:33;;;;;;;22.03;12.70;;;;;;;12.89;81.90;99580.38;4166708;28;20454;-66
2022/10/01 10:27:04;;;;;;;18.50;12.37;;;;;;;12.94;81.57;99572.63;4169274;28;20241;-66
2022/10/01 10:29:32;;;;;;;19.13;12.50;;;;;;;13.02;81.71;99559.22;4193878;28;20255;-67
2022/10/01 10:32:09;;;;;;;23.63;13.43;;;;;;;12.90;82.19;99552.69;4159791;28;21777;-68
2022/10/01 10:34:40;;;;;;;21.83;13.83;;;;;;;12.95;82.04;99550.28;4188044;28;20243;-67
2022/10/01 10:37:17;;;;;;;25.67;13.87;;;;;;;12.63;82.65;99533.56;4205475;28;20232;-72
2022/10/01 10:39:47;;;;;;;25.07;14.30;;;;;;;12.70;83.55;99546.19;4152825;29;20279;-70
2022/10/01 10:42:14;;;;;;;25.43;14.03;;;;;;;12.59;83.25;99537.59;4156640;28;20400;-71
2022/10/01 10:44:43;;;;;;;23.77;14.30;;;;;;;12.42;84.53;99536.06;4174834;28;20237;-68
2022/10/01 10:47:13;;;;;;;22.20;13.13;;;;;;;12.28;85.20;99528.84;4228613;28;20231;-68
2022/10/01 10:49:42;;;;;;;23.27;14.40;;;;;;;12.30;86.00;99526.84;4159049;28;22456;-68
2022/10/01 10:52:24;;;;;;;23.43;15.07;;;;;;;12.40;85.75;99522.91;4164176;28;20343;-71
2022/10/01 10:54:52;;;;;;;25.40;14.33;;;;;;;12.40;85.56;99522.06;4169067;28;20393;-71
2022/10/01 10:57:22;;;;;;;23.90;14.30;;;;;;;12.40;85.61;99525.56;4199328;28;21727;-72
2022/10/01 10:59:55;;;;;;;23.10;14.50;;;;;;;12.33;86.06;99513.13;4189114;28;20506;-69
2022/10/01 11:02:25;;;;;;;23.93;14.07;;;;;;;12.24;85.66;99501.69;4173890;28;20252;-68
2022/10/01 11:04:52;;;;;;;22.50;12.47;;;;;;;12.16;85.57;99505.25;4212897;28;20765;-71
2022/10/01 11:07:20;;;;;;;18.83;12.73;;;;;;;12.08;86.81;99510.66;4186621;28;20313;-45
2022/10/01 11:10:12;;;;;;;19.43;12.60;;;;;;;12.27;86.53;99503.16;4170834;28;20761;-67
2022/10/01 11:13:05;;;;;;;22.33;13.77;;;;;;;12.43;85.21;99495.03;4184671;28;20243;-71
2022/10/01 11:15:38;;;;;;;19.00;11.47;;;;;;;12.58;82.72;99492.41;4179690;28;25507;-70
2022/10/01 11:18:11;;;;;;;18.07;11.60;;;;;;;12.63;82.69;99490.84;4184563;28;20234;-69
2022/10/01 11:20:42;;;;;;;16.37;10.57;;;;;;;12.71;81.70;99486.44;4186943;28;21203;-70
2022/10/01 11:23:26;;;;;;;16.10;10.33;;;;;;;12.71;81.24;99475.75;4174176;28;20311;-70
2022/10/01 11:26:15;;;;;;;15.97;10.27;;;;;;;12.60;82.46;99469.03;4169589;28;26800;-70
2022/10/01 11:28:53;;;;;;;18.30;10.77;;;;;;;12.77;82.56;99467.84;4187212;28;21310;-71
2022/10/01 11:31:47;;;;;;;19.40;11.77;;;;;;;12.98;82.65;99463.63;4198387;28;20265;-72
2022/10/01 11:34:36;;;;;;;16.97;11.87;;;;;;;13.34;82.35;99458.38;4192355;28;20293;-69